createdAt,value
2023-03-16T00:01:33.867Z,19.80
2023-03-16T00:08:39.314Z,17.10
2023-03-16T00:11:12.237Z,17.20
2023-03-16T00:13:44.635Z,18.40
2023-03-16T00:16:25.338Z,18.90
2023-03-16T00:18:59.271Z,20.90
2023-03-16T00:25:35.027Z,21.00
2023-03-16T00:28:07.620Z,21.40
2023-03-16T00:30:47.782Z,18.90
2023-03-16T00:36:03.324Z,17.40
2023-03-16T00:39:22.746Z,20.00
2023-03-16T00:42:01.789Z,19.40
2023-03-16T00:44:34.354Z,19.70
2023-03-16T00:47:15.504Z,18.90
2023-03-16T00:50:24.564Z,17.50
2023-03-16T00:52:56.964Z,19.00
2023-03-16T00:55:36.108Z,17.40
2023-03-16T00:58:08.478Z,16.00
2023-03-16T01:01:38.546Z,16.80
2023-03-16T01:08:42.309Z,18.90
2023-03-16T01:11:17.424Z,19.70
2023-03-16T01:23:42.520Z,18.70
2023-03-16T01:26:17.987Z,22.10
2023-03-16T01:29:35.596Z,20.70
2023-03-16T01:32:15.303Z,20.00
2023-03-16T01:34:48.132Z,22.40
2023-03-16T01:37:27.933Z,22.80
2023-03-16T01:40:40.657Z,20.60
2023-03-16T01:44:01.088Z,22.40
2023-03-16T01:46:43.923Z,19.60
2023-03-16T01:50:01.355Z,19.60
2023-03-16T01:53:53.579Z,20.80
2023-03-16T02:00:36.517Z,18.50
2023-03-16T02:03:49.572Z,21.90
2023-03-16T02:06:26.320Z,22.30
2023-03-16T02:09:08.957Z,23.80
2023-03-16T02:24:49.863Z,17.90
2023-03-16T02:31:37.279Z,17.20
2023-03-16T02:43:26.518Z,18.70
2023-03-16T02:51:41.930Z,17.40
2023-03-16T02:54:14.801Z,17.20
2023-03-16T03:04:57.729Z,16.70
2023-03-16T03:08:05.818Z,16.50
2023-03-16T03:10:40.846Z,17.10
2023-03-16T03:18:11.698Z,15.90
2023-03-16T03:22:27.798Z,17.00
2023-03-16T03:25:14.158Z,22.70
2023-03-16T03:28:08.422Z,28.50
2023-03-16T03:34:35.034Z,24.20
2023-03-16T03:37:07.620Z,21.50
2023-03-16T03:39:48.470Z,23.70
2023-03-16T03:42:23.880Z,20.70
2023-03-16T03:46:23.121Z,21.60
2023-03-16T03:48:58.437Z,23.00
2023-03-16T03:52:44.013Z,23.00
2023-03-16T03:55:23.150Z,24.10
2023-03-16T03:57:55.353Z,26.60
2023-03-16T04:00:34.166Z,23.70
2023-03-16T04:03:07.419Z,23.60
2023-03-16T04:11:29.619Z,22.80
2023-03-16T04:14:02.108Z,22.70
2023-03-16T04:16:35.195Z,24.10
2023-03-16T04:47:34.911Z,25.50
2023-03-16T04:54:41.680Z,26.00
2023-03-16T04:57:21.330Z,25.20
2023-03-16T05:04:37.205Z,22.90
2023-03-16T05:11:38.064Z,22.70
2023-03-16T05:14:32.973Z,21.50
2023-03-16T05:26:08.936Z,16.80
2023-03-16T05:33:08.333Z,16.40
2023-03-16T05:40:53.227Z,17.40
2023-03-16T05:51:20.743Z,26.20
2023-03-16T05:53:56.728Z,30.00
2023-03-16T06:01:33.723Z,33.10
2023-03-16T06:04:48.113Z,124.10
2023-03-16T06:11:54.590Z,52.90
2023-03-16T06:19:02.855Z,54.40
2023-03-16T06:21:42.600Z,57.70
2023-03-16T06:24:15.958Z,36.00
2023-03-16T06:26:54.382Z,37.00
2023-03-16T06:29:27.817Z,30.60
2023-03-16T06:32:07.907Z,28.60
2023-03-16T06:34:41.660Z,52.70
2023-03-16T06:37:21.815Z,23.60
2023-03-16T06:39:55.093Z,23.60
2023-03-16T06:42:27.755Z,30.10
2023-03-16T06:45:50.979Z,28.40
2023-03-16T06:48:30.650Z,31.70
2023-03-16T06:51:03.234Z,27.70
2023-03-16T06:58:08.980Z,18.40
2023-03-16T07:00:42.208Z,17.60
2023-03-16T07:03:21.992Z,20.00
2023-03-16T07:10:25.659Z,15.80
2023-03-16T07:12:58.948Z,24.20
2023-03-16T07:15:32.312Z,22.00
2023-03-16T07:18:40.015Z,47.80
2023-03-16T07:21:22.723Z,18.20
2023-03-16T07:23:57.936Z,18.30
2023-03-16T07:26:53.857Z,21.60
2023-03-16T07:29:32.411Z,19.20
2023-03-16T07:32:28.511Z,18.40
2023-03-16T07:36:05.837Z,14.50
2023-03-16T07:41:52.599Z,15.40
2023-03-16T07:44:56.441Z,16.30
2023-03-16T07:47:43.852Z,19.20
2023-03-16T07:51:39.233Z,14.70
2023-03-16T07:54:15.180Z,13.60
2023-03-16T07:56:50.624Z,16.90
2023-03-16T07:59:32.603Z,19.90
2023-03-16T08:02:09.021Z,24.00
2023-03-16T08:05:04.075Z,45.10
2023-03-16T08:08:48.190Z,13.90
2023-03-16T08:11:31.091Z,15.30
2023-03-16T08:14:29.090Z,17.10
2023-03-16T08:17:48.950Z,17.60
2023-03-16T08:20:27.262Z,24.30
2023-03-16T08:23:00.462Z,10.40
2023-03-16T08:25:57.201Z,8.00
2023-03-16T08:32:03.599Z,15.10
2023-03-16T08:38:45.349Z,9.30
2023-03-16T08:42:15.315Z,6.10
2023-03-16T08:46:25.518Z,10.50
2023-03-16T08:49:08.019Z,14.80
2023-03-16T08:51:42.446Z,8.00
2023-03-16T08:55:09.737Z,15.50
2023-03-16T08:57:45.197Z,6.10
2023-03-16T09:00:50.903Z,11.20
2023-03-16T09:03:25.037Z,5.70
2023-03-16T09:09:35.837Z,6.30
2023-03-16T09:16:41.747Z,11.40
2023-03-16T09:19:21.516Z,6.10
2023-03-16T09:22:06.925Z,8.20
2023-03-16T09:24:41.707Z,7.10
2023-03-16T09:27:22.526Z,7.30
2023-03-16T09:30:16.854Z,6.90
2023-03-16T09:33:02.322Z,6.40
2023-03-16T09:35:56.128Z,8.10
2023-03-16T09:38:32.327Z,7.30
2023-03-16T09:45:27.790Z,9.50
2023-03-16T10:00:00.503Z,5.10
2023-03-16T10:33:44.898Z,5.70
2023-03-16T10:54:44.852Z,4.40
2023-03-16T11:09:39.163Z,6.60
2023-03-16T11:23:01.742Z,19.00
2023-03-16T11:27:00.073Z,9.30
2023-03-16T11:38:59.121Z,22.90
2023-03-16T11:42:05.089Z,13.90
2023-03-16T11:45:10.179Z,8.00
2023-03-16T11:59:12.030Z,5.80
2023-03-16T12:05:54.102Z,7.60
2023-03-16T12:16:39.041Z,7.40
2023-03-16T12:22:39.302Z,4.70
2023-03-16T12:26:24.312Z,6.40
2023-03-16T12:34:01.325Z,8.60
2023-03-16T12:36:59.024Z,4.60
2023-03-16T12:40:07.921Z,3.60
2023-03-16T12:50:31.969Z,7.60
2023-03-16T12:57:33.947Z,28.00
2023-03-16T13:05:53.218Z,6.30
2023-03-16T13:12:31.112Z,6.60
2023-03-16T13:19:45.185Z,5.00
2023-03-16T13:31:03.598Z,5.20
2023-03-16T13:33:43.425Z,6.20
2023-03-16T13:36:17.643Z,17.10
2023-03-16T13:54:33.172Z,8.90
2023-03-16T13:57:37.301Z,7.50
2023-03-16T14:12:38.053Z,5.30
2023-03-16T14:26:49.863Z,13.40
2023-03-16T14:33:30.974Z,11.60
2023-03-16T14:56:44.488Z,6.70
2023-03-16T14:59:16.562Z,8.80
2023-03-16T15:01:50.677Z,14.60
2023-03-16T15:04:28.933Z,18.80
2023-03-16T15:07:02.038Z,5.80
2023-03-16T15:09:38.853Z,9.10
2023-03-16T15:12:21.666Z,7.20
2023-03-16T15:15:07.557Z,6.20
2023-03-16T15:17:40.638Z,5.40
2023-03-16T15:20:16.276Z,7.90
2023-03-16T15:22:49.884Z,6.60
2023-03-16T15:25:35.866Z,5.40
2023-03-16T15:28:17.732Z,5.50
2023-03-16T15:30:52.123Z,13.30
2023-03-16T15:33:24.953Z,24.40
2023-03-16T15:35:59.814Z,17.10
2023-03-16T15:41:38.289Z,14.00
2023-03-16T15:44:17.250Z,11.90
2023-03-16T15:46:49.475Z,14.70
2023-03-16T15:49:22.449Z,13.90
2023-03-16T15:51:55.103Z,12.30
2023-03-16T15:54:27.285Z,11.20
2023-03-16T15:56:59.570Z,12.60
2023-03-16T15:59:49.000Z,7.30
2023-03-16T16:02:34.178Z,5.40
2023-03-16T16:05:06.712Z,9.50
2023-03-16T16:07:38.717Z,10.80
2023-03-16T16:10:27.090Z,33.20
2023-03-16T16:13:00.171Z,20.40
2023-03-16T16:15:41.412Z,18.10
2023-03-16T16:21:47.996Z,21.90
2023-03-16T16:24:25.398Z,20.90
2023-03-16T16:26:57.478Z,28.70
2023-03-16T16:33:42.193Z,8.00
2023-03-16T16:40:25.924Z,5.70
2023-03-16T16:42:59.474Z,6.00
2023-03-16T16:45:32.030Z,6.30
2023-03-16T16:48:07.860Z,6.60
2023-03-16T16:50:39.991Z,7.20
2023-03-16T16:53:21.858Z,7.20
2023-03-16T16:55:54.507Z,8.00
2023-03-16T16:58:27.280Z,7.40
2023-03-16T17:01:00.315Z,7.40
2023-03-16T17:03:34.162Z,6.90
2023-03-16T17:06:07.009Z,8.30
2023-03-16T17:08:39.050Z,7.50
2023-03-16T17:14:22.764Z,8.20
2023-03-16T17:17:05.331Z,6.90
2023-03-16T17:19:38.009Z,5.80
2023-03-16T17:22:25.634Z,5.50
2023-03-16T17:24:58.525Z,4.70
2023-03-16T17:27:33.182Z,5.70
2023-03-16T17:30:29.193Z,5.00
2023-03-16T17:33:11.704Z,4.30
2023-03-16T17:35:45.049Z,5.20
2023-03-16T17:38:23.326Z,4.40
2023-03-16T17:40:56.329Z,4.10
2023-03-16T17:43:31.852Z,4.20
2023-03-16T17:46:11.316Z,5.00
2023-03-16T17:48:43.717Z,4.10
2023-03-16T17:51:17.922Z,4.10
2023-03-16T17:53:50.389Z,4.50
2023-03-16T17:56:25.457Z,4.30
2023-03-16T18:01:53.062Z,5.00
2023-03-16T18:04:27.787Z,6.50
2023-03-16T18:07:16.402Z,6.20
2023-03-16T18:09:49.039Z,5.20
2023-03-16T18:12:21.151Z,4.10
2023-03-16T18:14:58.583Z,4.50
2023-03-16T18:17:33.592Z,4.20
2023-03-16T18:20:16.920Z,3.90
2023-03-16T18:22:50.360Z,4.40
2023-03-16T18:25:44.282Z,4.80
2023-03-16T18:28:18.712Z,5.20
2023-03-16T18:30:53.682Z,6.30
2023-03-16T18:33:38.343Z,6.40
2023-03-16T18:36:20.733Z,5.50
2023-03-16T18:38:54.936Z,6.00
2023-03-16T18:41:29.371Z,6.40
2023-03-16T18:46:48.313Z,6.40
2023-03-16T18:52:20.653Z,6.30
2023-03-16T18:54:53.881Z,6.10
2023-03-16T18:57:28.950Z,6.50
2023-03-16T19:03:20.523Z,5.90
2023-03-16T19:05:56.204Z,7.40
2023-03-16T19:11:28.017Z,8.60
2023-03-16T19:14:00.154Z,8.30
2023-03-16T19:16:32.598Z,11.20
2023-03-16T19:19:04.758Z,11.20
2023-03-16T19:21:37.829Z,10.40
2023-03-16T19:24:31.820Z,10.90
2023-03-16T19:27:04.160Z,9.40
2023-03-16T19:29:37.365Z,9.10
2023-03-16T19:32:17.114Z,9.40
2023-03-16T19:34:49.768Z,9.30
2023-03-16T19:37:23.936Z,9.00
2023-03-16T19:39:56.124Z,10.40
2023-03-16T19:42:36.533Z,9.40
2023-03-16T19:50:57.355Z,10.40
2023-03-16T19:53:29.552Z,12.00
2023-03-16T20:00:41.995Z,12.30
2023-03-16T20:03:14.584Z,12.90
2023-03-16T20:05:46.880Z,11.90
2023-03-16T20:08:28.652Z,12.40
2023-03-16T20:11:48.132Z,11.50
2023-03-16T20:18:33.029Z,11.70
2023-03-16T20:21:05.324Z,13.00
2023-03-16T20:32:43.040Z,13.70
2023-03-16T20:38:43.330Z,19.70
2023-03-16T20:49:58.371Z,24.10
2023-03-16T20:52:31.277Z,24.90
2023-03-16T20:55:21.431Z,25.90
2023-03-16T20:57:55.468Z,32.50
2023-03-16T21:00:39.221Z,28.10
2023-03-16T21:20:02.262Z,36.90
2023-03-16T21:30:46.349Z,47.80
2023-03-16T21:33:35.047Z,47.60
2023-03-16T21:36:59.424Z,45.50
2023-03-16T21:39:31.639Z,38.20
2023-03-16T21:47:00.937Z,44.30
2023-03-16T21:49:39.552Z,47.00
2023-03-16T22:01:11.025Z,70.70
2023-03-16T22:03:51.539Z,67.30
2023-03-16T22:06:48.252Z,64.20
2023-03-16T22:09:22.655Z,62.00
2023-03-16T22:12:40.415Z,56.10
2023-03-16T22:15:20.208Z,49.80
2023-03-16T22:17:53.125Z,54.60
2023-03-16T22:23:40.914Z,48.70
2023-03-16T22:26:59.345Z,61.70
2023-03-16T22:29:33.581Z,63.70
2023-03-16T22:32:22.886Z,70.90
2023-03-16T22:39:21.780Z,70.50
2023-03-16T22:41:54.053Z,78.60
2023-03-16T22:48:59.154Z,82.00
2023-03-16T22:51:34.188Z,93.40
2023-03-16T23:02:02.816Z,97.60
2023-03-16T23:04:34.847Z,101.70
2023-03-16T23:07:15.094Z,101.10
2023-03-16T23:13:39.736Z,106.00
2023-03-16T23:16:39.593Z,107.50
2023-03-16T23:24:02.656Z,101.50
2023-03-16T23:26:35.987Z,101.40
2023-03-16T23:29:08.157Z,101.40
2023-03-16T23:31:46.710Z,109.50
2023-03-16T23:38:08.403Z,104.90
2023-03-16T23:40:41.534Z,103.40
2023-03-16T23:43:27.842Z,102.60
2023-03-16T23:46:18.297Z,105.70
2023-03-16T23:48:53.427Z,110.10
2023-03-16T23:52:13.578Z,100.50
2023-03-16T23:56:32.313Z,98.00
2023-03-16T23:59:04.411Z,97.20
